CKN9 weather

Shilo (Flewin Field) Heliport
Shilo, Manitoba, Canada

Public forecast

Using degrees Celsius for public forecast. Weather courtesy of forecast.io.

Closest aviation weather report (METAR) to Shilo (Flewin Field) Heliport

Closest report is Brandon Municipal Airport, 14.4 nm (26.6 km) WNW. Retrieved 2019/10/14 15:00 UTC (14 minutes ago):

CYBR 141500Z 12004KT 15SM OVC038 01/M01 A2985 RMK SC8 SLP129

Closest aviation forecast (TAF) to Shilo (Flewin Field) Heliport

Closest forecast is Brandon Municipal Airport, 14.4 nm (26.6 km) WNW. Retrieved 2019/10/14 12:45 UTC (2 hours ago):

TAF TAF CYBR 141142Z 1412/1424 12003KT P6SM SCT020 BKN040 TEMPO 1412/1415 2SM BR BKN020 PROB30 1413/1414 3/4SM BR VV006 FM141500 12003KT P6SM FEW020 TEMPO 1415/1417 BKN020 FM141700 12003KT P6SM BKN110 FM142200 12008KT P6SM BKN090 RMK NXT FCST BY 141800Z